sensor_id;sensor_type;location;lat;lon;timestamp;P1;durP1;ratioP1;P2;durP2;ratioP2
5010;SDS011;2524;54.364;10.072;2022-10-23T00:01:27;2.27;;;2.27;;
5010;SDS011;2524;54.364;10.072;2022-10-23T00:04:04;4.50;;;2.53;;
5010;SDS011;2524;54.364;10.072;2022-10-23T00:06:32;3.60;;;2.40;;
5010;SDS011;2524;54.364;10.072;2022-10-23T00:08:59;5.13;;;3.23;;
5010;SDS011;2524;54.364;10.072;2022-10-23T00:11:26;5.90;;;3.10;;
5010;SDS011;2524;54.364;10.072;2022-10-23T00:13:54;4.00;;;2.90;;
5010;SDS011;2524;54.364;10.072;2022-10-23T00:16:22;4.53;;;2.80;;
5010;SDS011;2524;54.364;10.072;2022-10-23T00:18:48;3.43;;;3.10;;
5010;SDS011;2524;54.364;10.072;2022-10-23T00:21:14;5.13;;;3.33;;
5010;SDS011;2524;54.364;10.072;2022-10-23T00:23:41;4.33;;;2.80;;
5010;SDS011;2524;54.364;10.072;2022-10-23T00:26:07;3.93;;;3.10;;
5010;SDS011;2524;54.364;10.072;2022-10-23T00:28:35;5.17;;;3.00;;
5010;SDS011;2524;54.364;10.072;2022-10-23T00:31:01;5.40;;;3.37;;
5010;SDS011;2524;54.364;10.072;2022-10-23T00:33:28;3.17;;;2.97;;
5010;SDS011;2524;54.364;10.072;2022-10-23T00:35:54;3.67;;;3.07;;
5010;SDS011;2524;54.364;10.072;2022-10-23T00:38:20;3.53;;;3.23;;
5010;SDS011;2524;54.364;10.072;2022-10-23T00:40:46;4.13;;;3.30;;
5010;SDS011;2524;54.364;10.072;2022-10-23T00:43:15;3.10;;;2.80;;
5010;SDS011;2524;54.364;10.072;2022-10-23T00:45:46;3.77;;;3.20;;
5010;SDS011;2524;54.364;10.072;2022-10-23T00:48:12;3.30;;;3.00;;
5010;SDS011;2524;54.364;10.072;2022-10-23T00:50:38;2.90;;;2.70;;
5010;SDS011;2524;54.364;10.072;2022-10-23T00:53:04;3.47;;;3.17;;
5010;SDS011;2524;54.364;10.072;2022-10-23T00:55:31;3.13;;;2.93;;
5010;SDS011;2524;54.364;10.072;2022-10-23T00:57:57;3.17;;;3.07;;
5010;SDS011;2524;54.364;10.072;2022-10-23T01:00:24;3.67;;;3.47;;
5010;SDS011;2524;54.364;10.072;2022-10-23T01:02:54;3.80;;;3.23;;
5010;SDS011;2524;54.364;10.072;2022-10-23T01:05:22;6.20;;;3.37;;
5010;SDS011;2524;54.364;10.072;2022-10-23T01:07:51;4.27;;;3.20;;
5010;SDS011;2524;54.364;10.072;2022-10-23T01:10:36;3.57;;;3.37;;
5010;SDS011;2524;54.364;10.072;2022-10-23T01:13:10;5.80;;;3.80;;
5010;SDS011;2524;54.364;10.072;2022-10-23T01:15:45;3.87;;;3.33;;
5010;SDS011;2524;54.364;10.072;2022-10-23T01:18:20;3.73;;;3.37;;
5010;SDS011;2524;54.364;10.072;2022-10-23T01:21:04;4.53;;;3.60;;
5010;SDS011;2524;54.364;10.072;2022-10-23T01:26:44;3.80;;;3.50;;
5010;SDS011;2524;54.364;10.072;2022-10-23T01:32:06;4.10;;;3.47;;
5010;SDS011;2524;54.364;10.072;2022-10-23T01:34:43;3.63;;;3.33;;
5010;SDS011;2524;54.364;10.072;2022-10-23T01:37:28;3.33;;;3.10;;
5010;SDS011;2524;54.364;10.072;2022-10-23T01:40:02;3.40;;;3.20;;
5010;SDS011;2524;54.364;10.072;2022-10-23T01:42:32;8.80;;;3.53;;
5010;SDS011;2524;54.364;10.072;2022-10-23T01:45:04;4.27;;;3.83;;
5010;SDS011;2524;54.364;10.072;2022-10-23T01:47:34;4.07;;;3.63;;
5010;SDS011;2524;54.364;10.072;2022-10-23T01:50:01;4.17;;;3.70;;
5010;SDS011;2524;54.364;10.072;2022-10-23T01:52:29;4.23;;;3.93;;
5010;SDS011;2524;54.364;10.072;2022-10-23T01:54:55;4.80;;;3.90;;
5010;SDS011;2524;54.364;10.072;2022-10-23T01:57:23;4.30;;;3.90;;
5010;SDS011;2524;54.364;10.072;2022-10-23T01:59:56;3.63;;;3.30;;
5010;SDS011;2524;54.364;10.072;2022-10-23T02:02:31;4.40;;;4.00;;
5010;SDS011;2524;54.364;10.072;2022-10-23T02:05:02;3.50;;;3.20;;
5010;SDS011;2524;54.364;10.072;2022-10-23T02:07:32;4.23;;;3.30;;
5010;SDS011;2524;54.364;10.072;2022-10-23T02:09:58;4.43;;;3.70;;
5010;SDS011;2524;54.364;10.072;2022-10-23T02:12:26;3.87;;;3.57;;
5010;SDS011;2524;54.364;10.072;2022-10-23T02:15:07;3.70;;;3.40;;
5010;SDS011;2524;54.364;10.072;2022-10-23T02:20:19;3.87;;;3.00;;
5010;SDS011;2524;54.364;10.072;2022-10-23T02:22:52;3.63;;;3.37;;
5010;SDS011;2524;54.364;10.072;2022-10-23T02:25:29;3.40;;;3.27;;
5010;SDS011;2524;54.364;10.072;2022-10-23T02:27:59;2.87;;;2.77;;
5010;SDS011;2524;54.364;10.072;2022-10-23T02:30:31;3.50;;;3.30;;
5010;SDS011;2524;54.364;10.072;2022-10-23T02:32:59;3.80;;;3.50;;
5010;SDS011;2524;54.364;10.072;2022-10-23T02:35:26;4.37;;;3.80;;
5010;SDS011;2524;54.364;10.072;2022-10-23T02:37:53;4.00;;;3.47;;
5010;SDS011;2524;54.364;10.072;2022-10-23T02:40:20;3.30;;;3.10;;
5010;SDS011;2524;54.364;10.072;2022-10-23T02:42:51;3.30;;;3.10;;
5010;SDS011;2524;54.364;10.072;2022-10-23T02:48:06;3.60;;;3.30;;
5010;SDS011;2524;54.364;10.072;2022-10-23T02:58:44;3.47;;;3.17;;
5010;SDS011;2524;54.364;10.072;2022-10-23T03:01:24;3.07;;;2.90;;
5010;SDS011;2524;54.364;10.072;2022-10-23T03:03:54;3.30;;;3.07;;
5010;SDS011;2524;54.364;10.072;2022-10-23T03:06:22;3.53;;;2.97;;
5010;SDS011;2524;54.364;10.072;2022-10-23T03:08:50;2.87;;;2.60;;
5010;SDS011;2524;54.364;10.072;2022-10-23T03:11:18;3.57;;;3.27;;
5010;SDS011;2524;54.364;10.072;2022-10-23T03:13:44;2.70;;;2.60;;
5010;SDS011;2524;54.364;10.072;2022-10-23T03:16:09;3.10;;;2.90;;
5010;SDS011;2524;54.364;10.072;2022-10-23T03:18:35;2.90;;;2.70;;
5010;SDS011;2524;54.364;10.072;2022-10-23T03:21:00;4.13;;;3.50;;
5010;SDS011;2524;54.364;10.072;2022-10-23T03:23:26;3.20;;;3.00;;
5010;SDS011;2524;54.364;10.072;2022-10-23T03:25:52;3.63;;;3.37;;
5010;SDS011;2524;54.364;10.072;2022-10-23T03:28:18;3.00;;;2.80;;
5010;SDS011;2524;54.364;10.072;2022-10-23T03:30:43;3.10;;;2.90;;
5010;SDS011;2524;54.364;10.072;2022-10-23T03:33:09;2.90;;;2.80;;
5010;SDS011;2524;54.364;10.072;2022-10-23T03:35:34;3.70;;;3.50;;
5010;SDS011;2524;54.364;10.072;2022-10-23T03:38:00;3.20;;;3.00;;
5010;SDS011;2524;54.364;10.072;2022-10-23T03:40:25;4.77;;;4.13;;
5010;SDS011;2524;54.364;10.072;2022-10-23T03:42:51;5.70;;;4.50;;
5010;SDS011;2524;54.364;10.072;2022-10-23T03:45:17;4.97;;;4.50;;
5010;SDS011;2524;54.364;10.072;2022-10-23T03:47:42;4.70;;;4.37;;
5010;SDS011;2524;54.364;10.072;2022-10-23T03:50:09;6.17;;;5.57;;
5010;SDS011;2524;54.364;10.072;2022-10-23T03:52:35;6.77;;;5.30;;
5010;SDS011;2524;54.364;10.072;2022-10-23T03:55:01;7.63;;;6.10;;
5010;SDS011;2524;54.364;10.072;2022-10-23T03:57:27;6.03;;;5.43;;
5010;SDS011;2524;54.364;10.072;2022-10-23T03:59:53;4.70;;;4.40;;
5010;SDS011;2524;54.364;10.072;2022-10-23T04:02:18;5.00;;;4.60;;
5010;SDS011;2524;54.364;10.072;2022-10-23T04:04:44;5.37;;;4.90;;
5010;SDS011;2524;54.364;10.072;2022-10-23T04:07:09;5.27;;;4.40;;
5010;SDS011;2524;54.364;10.072;2022-10-23T04:09:35;5.27;;;4.87;;
5010;SDS011;2524;54.364;10.072;2022-10-23T04:12:01;4.63;;;4.33;;
5010;SDS011;2524;54.364;10.072;2022-10-23T04:14:26;5.33;;;5.00;;
5010;SDS011;2524;54.364;10.072;2022-10-23T04:16:52;4.67;;;4.37;;
5010;SDS011;2524;54.364;10.072;2022-10-23T04:19:17;5.30;;;4.90;;
5010;SDS011;2524;54.364;10.072;2022-10-23T04:21:43;4.77;;;4.47;;
5010;SDS011;2524;54.364;10.072;2022-10-23T04:24:09;9.23;;;5.53;;
5010;SDS011;2524;54.364;10.072;2022-10-23T04:26:35;4.87;;;4.57;;
5010;SDS011;2524;54.364;10.072;2022-10-23T04:29:00;5.90;;;5.47;;
5010;SDS011;2524;54.364;10.072;2022-10-23T04:31:26;5.37;;;5.03;;
5010;SDS011;2524;54.364;10.072;2022-10-23T04:33:52;5.73;;;5.23;;
5010;SDS011;2524;54.364;10.072;2022-10-23T04:36:17;5.87;;;5.47;;
5010;SDS011;2524;54.364;10.072;2022-10-23T04:38:43;5.33;;;5.03;;
5010;SDS011;2524;54.364;10.072;2022-10-23T04:41:08;5.37;;;5.00;;
5010;SDS011;2524;54.364;10.072;2022-10-23T04:43:34;5.40;;;5.00;;
5010;SDS011;2524;54.364;10.072;2022-10-23T04:46:00;5.80;;;5.40;;
5010;SDS011;2524;54.364;10.072;2022-10-23T04:48:26;5.20;;;4.90;;
5010;SDS011;2524;54.364;10.072;2022-10-23T04:50:59;6.33;;;5.83;;
5010;SDS011;2524;54.364;10.072;2022-10-23T04:53:27;5.90;;;5.50;;
5010;SDS011;2524;54.364;10.072;2022-10-23T04:55:53;6.30;;;5.90;;
5010;SDS011;2524;54.364;10.072;2022-10-23T04:58:20;5.23;;;4.93;;
5010;SDS011;2524;54.364;10.072;2022-10-23T05:00:46;6.27;;;5.67;;
5010;SDS011;2524;54.364;10.072;2022-10-23T05:03:13;4.97;;;4.67;;
5010;SDS011;2524;54.364;10.072;2022-10-23T05:05:40;5.20;;;4.87;;
5010;SDS011;2524;54.364;10.072;2022-10-23T05:08:07;7.13;;;6.60;;
5010;SDS011;2524;54.364;10.072;2022-10-23T05:10:33;5.67;;;5.30;;
5010;SDS011;2524;54.364;10.072;2022-10-23T05:12:58;7.20;;;6.70;;
5010;SDS011;2524;54.364;10.072;2022-10-23T05:15:24;5.70;;;5.30;;
5010;SDS011;2524;54.364;10.072;2022-10-23T05:17:51;4.97;;;4.63;;
5010;SDS011;2524;54.364;10.072;2022-10-23T05:20:21;4.60;;;4.33;;
5010;SDS011;2524;54.364;10.072;2022-10-23T05:22:49;4.90;;;4.60;;
5010;SDS011;2524;54.364;10.072;2022-10-23T05:25:18;4.40;;;4.20;;
5010;SDS011;2524;54.364;10.072;2022-10-23T05:27:44;6.07;;;5.67;;
5010;SDS011;2524;54.364;10.072;2022-10-23T05:30:10;7.23;;;6.73;;
5010;SDS011;2524;54.364;10.072;2022-10-23T05:32:36;6.80;;;6.30;;
5010;SDS011;2524;54.364;10.072;2022-10-23T05:35:05;7.80;;;7.07;;
5010;SDS011;2524;54.364;10.072;2022-10-23T05:37:33;7.03;;;6.53;;
5010;SDS011;2524;54.364;10.072;2022-10-23T05:40:01;4.50;;;4.30;;
5010;SDS011;2524;54.364;10.072;2022-10-23T05:42:26;4.73;;;4.43;;
5010;SDS011;2524;54.364;10.072;2022-10-23T05:44:52;4.43;;;4.17;;
5010;SDS011;2524;54.364;10.072;2022-10-23T05:47:18;6.90;;;6.40;;
5010;SDS011;2524;54.364;10.072;2022-10-23T05:49:43;7.60;;;7.00;;
5010;SDS011;2524;54.364;10.072;2022-10-23T05:52:09;8.80;;;8.10;;
5010;SDS011;2524;54.364;10.072;2022-10-23T05:54:35;6.60;;;6.17;;
5010;SDS011;2524;54.364;10.072;2022-10-23T05:57:01;9.03;;;8.33;;
5010;SDS011;2524;54.364;10.072;2022-10-23T05:59:26;7.07;;;6.57;;
5010;SDS011;2524;54.364;10.072;2022-10-23T06:01:52;7.33;;;6.83;;
5010;SDS011;2524;54.364;10.072;2022-10-23T06:04:18;8.50;;;7.80;;
5010;SDS011;2524;54.364;10.072;2022-10-23T06:06:44;8.90;;;7.90;;
5010;SDS011;2524;54.364;10.072;2022-10-23T06:09:10;6.53;;;6.07;;
5010;SDS011;2524;54.364;10.072;2022-10-23T06:11:36;7.10;;;6.60;;
5010;SDS011;2524;54.364;10.072;2022-10-23T06:14:02;7.43;;;6.83;;
5010;SDS011;2524;54.364;10.072;2022-10-23T06:16:27;9.40;;;8.70;;
5010;SDS011;2524;54.364;10.072;2022-10-23T06:18:53;6.70;;;6.20;;
5010;SDS011;2524;54.364;10.072;2022-10-23T06:21:19;8.27;;;7.67;;
5010;SDS011;2524;54.364;10.072;2022-10-23T06:23:45;7.90;;;7.30;;
5010;SDS011;2524;54.364;10.072;2022-10-23T06:26:12;8.40;;;7.70;;
5010;SDS011;2524;54.364;10.072;2022-10-23T06:28:39;9.97;;;9.17;;
5010;SDS011;2524;54.364;10.072;2022-10-23T06:31:06;8.30;;;7.60;;
5010;SDS011;2524;54.364;10.072;2022-10-23T06:33:34;6.27;;;5.87;;
5010;SDS011;2524;54.364;10.072;2022-10-23T06:36:00;8.60;;;7.90;;
5010;SDS011;2524;54.364;10.072;2022-10-23T06:38:27;7.97;;;7.37;;
5010;SDS011;2524;54.364;10.072;2022-10-23T06:40:53;8.37;;;7.67;;
5010;SDS011;2524;54.364;10.072;2022-10-23T06:43:20;12.03;;;8.70;;
5010;SDS011;2524;54.364;10.072;2022-10-23T06:45:46;8.80;;;8.10;;
5010;SDS011;2524;54.364;10.072;2022-10-23T06:48:12;9.33;;;8.53;;
5010;SDS011;2524;54.364;10.072;2022-10-23T06:50:37;6.80;;;6.30;;
5010;SDS011;2524;54.364;10.072;2022-10-23T06:53:04;10.17;;;9.27;;
5010;SDS011;2524;54.364;10.072;2022-10-23T06:55:30;11.23;;;10.03;;
5010;SDS011;2524;54.364;10.072;2022-10-23T06:57:56;10.37;;;9.47;;
5010;SDS011;2524;54.364;10.072;2022-10-23T07:00:21;9.87;;;9.07;;
5010;SDS011;2524;54.364;10.072;2022-10-23T07:02:48;11.40;;;9.80;;
5010;SDS011;2524;54.364;10.072;2022-10-23T07:05:14;8.23;;;7.53;;
5010;SDS011;2524;54.364;10.072;2022-10-23T07:07:40;9.87;;;9.00;;
5010;SDS011;2524;54.364;10.072;2022-10-23T07:10:05;10.70;;;9.80;;
5010;SDS011;2524;54.364;10.072;2022-10-23T07:12:31;9.13;;;8.33;;
5010;SDS011;2524;54.364;10.072;2022-10-23T07:14:57;10.67;;;9.77;;
5010;SDS011;2524;54.364;10.072;2022-10-23T07:17:22;9.60;;;8.70;;
5010;SDS011;2524;54.364;10.072;2022-10-23T07:19:48;11.00;;;9.90;;
5010;SDS011;2524;54.364;10.072;2022-10-23T07:22:14;10.47;;;9.37;;
5010;SDS011;2524;54.364;10.072;2022-10-23T07:24:39;8.80;;;8.00;;
5010;SDS011;2524;54.364;10.072;2022-10-23T07:27:05;9.37;;;8.57;;
5010;SDS011;2524;54.364;10.072;2022-10-23T07:29:30;12.50;;;11.30;;
5010;SDS011;2524;54.364;10.072;2022-10-23T07:31:57;10.17;;;9.27;;
5010;SDS011;2524;54.364;10.072;2022-10-23T07:34:24;16.83;;;11.73;;
5010;SDS011;2524;54.364;10.072;2022-10-23T07:36:51;10.13;;;9.23;;
5010;SDS011;2524;54.364;10.072;2022-10-23T07:39:19;7.50;;;6.90;;
5010;SDS011;2524;54.364;10.072;2022-10-23T07:41:46;7.93;;;7.23;;
5010;SDS011;2524;54.364;10.072;2022-10-23T07:44:12;7.00;;;6.40;;
5010;SDS011;2524;54.364;10.072;2022-10-23T07:46:38;10.00;;;9.10;;
5010;SDS011;2524;54.364;10.072;2022-10-23T07:49:03;8.50;;;7.80;;
5010;SDS011;2524;54.364;10.072;2022-10-23T07:51:29;24.03;;;11.70;;
5010;SDS011;2524;54.364;10.072;2022-10-23T07:53:55;8.97;;;8.17;;
5010;SDS011;2524;54.364;10.072;2022-10-23T07:56:24;9.03;;;8.10;;
5010;SDS011;2524;54.364;10.072;2022-10-23T07:58:53;13.77;;;10.30;;
5010;SDS011;2524;54.364;10.072;2022-10-23T08:01:29;10.93;;;9.63;;
5010;SDS011;2524;54.364;10.072;2022-10-23T08:03:56;9.93;;;9.03;;
5010;SDS011;2524;54.364;10.072;2022-10-23T08:06:22;9.30;;;8.50;;
5010;SDS011;2524;54.364;10.072;2022-10-23T08:08:48;12.40;;;10.20;;
5010;SDS011;2524;54.364;10.072;2022-10-23T08:11:14;11.47;;;10.27;;
5010;SDS011;2524;54.364;10.072;2022-10-23T08:13:48;11.80;;;10.70;;
5010;SDS011;2524;54.364;10.072;2022-10-23T08:16:14;9.90;;;8.90;;
5010;SDS011;2524;54.364;10.072;2022-10-23T08:18:40;7.47;;;6.87;;
5010;SDS011;2524;54.364;10.072;2022-10-23T08:21:07;10.10;;;9.20;;
5010;SDS011;2524;54.364;10.072;2022-10-23T08:23:33;8.40;;;7.70;;
5010;SDS011;2524;54.364;10.072;2022-10-23T08:26:00;9.30;;;8.47;;
5010;SDS011;2524;54.364;10.072;2022-10-23T08:28:27;11.60;;;10.47;;
5010;SDS011;2524;54.364;10.072;2022-10-23T08:30:53;22.93;;;12.53;;
5010;SDS011;2524;54.364;10.072;2022-10-23T08:33:21;9.50;;;8.70;;
5010;SDS011;2524;54.364;10.072;2022-10-23T08:35:47;8.47;;;7.77;;
5010;SDS011;2524;54.364;10.072;2022-10-23T08:38:13;9.37;;;8.47;;
5010;SDS011;2524;54.364;10.072;2022-10-23T08:40:42;10.07;;;9.17;;
5010;SDS011;2524;54.364;10.072;2022-10-23T08:43:15;9.43;;;8.43;;
5010;SDS011;2524;54.364;10.072;2022-10-23T08:45:50;7.90;;;7.20;;
5010;SDS011;2524;54.364;10.072;2022-10-23T08:48:32;6.60;;;6.10;;
5010;SDS011;2524;54.364;10.072;2022-10-23T08:51:12;6.40;;;5.80;;
5010;SDS011;2524;54.364;10.072;2022-10-23T08:56:47;7.20;;;6.57;;
5010;SDS011;2524;54.364;10.072;2022-10-23T08:59:28;10.30;;;9.23;;
5010;SDS011;2524;54.364;10.072;2022-10-23T09:04:42;11.60;;;10.43;;
5010;SDS011;2524;54.364;10.072;2022-10-23T09:07:30;13.37;;;11.93;;
5010;SDS011;2524;54.364;10.072;2022-10-23T09:13:01;16.03;;;12.70;;
5010;SDS011;2524;54.364;10.072;2022-10-23T09:18:58;14.80;;;11.77;;
5010;SDS011;2524;54.364;10.072;2022-10-23T09:21:25;10.07;;;8.63;;
5010;SDS011;2524;54.364;10.072;2022-10-23T09:23:52;16.20;;;12.43;;
5010;SDS011;2524;54.364;10.072;2022-10-23T09:26:18;8.87;;;8.10;;
5010;SDS011;2524;54.364;10.072;2022-10-23T09:28:46;12.83;;;10.43;;
5010;SDS011;2524;54.364;10.072;2022-10-23T09:31:13;10.73;;;9.63;;
5010;SDS011;2524;54.364;10.072;2022-10-23T09:33:40;11.43;;;10.33;;
5010;SDS011;2524;54.364;10.072;2022-10-23T09:36:07;15.60;;;11.03;;
5010;SDS011;2524;54.364;10.072;2022-10-23T09:41:24;13.00;;;10.63;;
5010;SDS011;2524;54.364;10.072;2022-10-23T09:49:35;13.20;;;10.77;;
5010;SDS011;2524;54.364;10.072;2022-10-23T09:52:18;9.10;;;8.30;;
5010;SDS011;2524;54.364;10.072;2022-10-23T09:54:54;12.03;;;9.50;;
5010;SDS011;2524;54.364;10.072;2022-10-23T09:59:54;9.30;;;8.40;;
5010;SDS011;2524;54.364;10.072;2022-10-23T10:02:28;9.50;;;8.20;;
5010;SDS011;2524;54.364;10.072;2022-10-23T10:04:57;8.73;;;7.80;;
5010;SDS011;2524;54.364;10.072;2022-10-23T10:07:24;6.60;;;6.10;;
5010;SDS011;2524;54.364;10.072;2022-10-23T10:09:52;15.77;;;13.17;;
5010;SDS011;2524;54.364;10.072;2022-10-23T10:15:03;11.70;;;10.50;;
5010;SDS011;2524;54.364;10.072;2022-10-23T10:17:42;17.00;;;13.50;;
5010;SDS011;2524;54.364;10.072;2022-10-23T10:26:37;12.50;;;11.30;;
5010;SDS011;2524;54.364;10.072;2022-10-23T10:40:42;25.13;;;17.60;;
5010;SDS011;2524;54.364;10.072;2022-10-23T10:45:47;19.13;;;13.77;;
5010;SDS011;2524;54.364;10.072;2022-10-23T10:48:22;22.60;;;17.10;;
5010;SDS011;2524;54.364;10.072;2022-10-23T10:51:05;20.90;;;16.20;;
5010;SDS011;2524;54.364;10.072;2022-10-23T10:53:42;17.73;;;14.13;;
5010;SDS011;2524;54.364;10.072;2022-10-23T10:56:13;15.27;;;12.50;;
5010;SDS011;2524;54.364;10.072;2022-10-23T10:58:53;20.70;;;14.50;;
5010;SDS011;2524;54.364;10.072;2022-10-23T11:01:29;37.03;;;15.87;;
5010;SDS011;2524;54.364;10.072;2022-10-23T11:06:28;22.77;;;16.10;;
5010;SDS011;2524;54.364;10.072;2022-10-23T11:08:57;20.73;;;14.50;;
5010;SDS011;2524;54.364;10.072;2022-10-23T11:11:33;14.90;;;11.37;;
5010;SDS011;2524;54.364;10.072;2022-10-23T11:14:04;16.23;;;13.50;;
5010;SDS011;2524;54.364;10.072;2022-10-23T11:16:38;12.93;;;11.40;;
5010;SDS011;2524;54.364;10.072;2022-10-23T11:19:11;10.30;;;8.63;;
5010;SDS011;2524;54.364;10.072;2022-10-23T11:21:41;12.77;;;11.20;;
5010;SDS011;2524;54.364;10.072;2022-10-23T11:37:27;14.57;;;10.80;;
5010;SDS011;2524;54.364;10.072;2022-10-23T11:40:17;11.90;;;9.70;;
5010;SDS011;2524;54.364;10.072;2022-10-23T11:42:48;16.23;;;13.60;;
5010;SDS011;2524;54.364;10.072;2022-10-23T11:48:01;14.90;;;10.40;;
5010;SDS011;2524;54.364;10.072;2022-10-23T11:50:49;15.67;;;11.60;;
5010;SDS011;2524;54.364;10.072;2022-10-23T11:53:38;9.47;;;8.00;;
5010;SDS011;2524;54.364;10.072;2022-10-23T12:03:59;8.70;;;7.80;;
5010;SDS011;2524;54.364;10.072;2022-10-23T12:06:49;10.57;;;9.27;;
5010;SDS011;2524;54.364;10.072;2022-10-23T12:12:00;7.87;;;7.07;;
5010;SDS011;2524;54.364;10.072;2022-10-23T12:14:39;8.93;;;8.00;;
5010;SDS011;2524;54.364;10.072;2022-10-23T12:17:29;22.30;;;13.10;;
5010;SDS011;2524;54.364;10.072;2022-10-23T12:20:12;16.20;;;11.97;;
5010;SDS011;2524;54.364;10.072;2022-10-23T12:22:59;15.63;;;11.63;;
5010;SDS011;2524;54.364;10.072;2022-10-23T12:26:24;13.30;;;10.43;;
5010;SDS011;2524;54.364;10.072;2022-10-23T12:31:47;11.90;;;9.17;;
5010;SDS011;2524;54.364;10.072;2022-10-23T12:40:06;15.50;;;11.17;;
5010;SDS011;2524;54.364;10.072;2022-10-23T12:42:33;8.90;;;8.00;;
5010;SDS011;2524;54.364;10.072;2022-10-23T12:45:00;12.33;;;9.47;;
5010;SDS011;2524;54.364;10.072;2022-10-23T12:47:42;7.47;;;6.77;;
5010;SDS011;2524;54.364;10.072;2022-10-23T12:50:29;13.40;;;9.50;;
5010;SDS011;2524;54.364;10.072;2022-10-23T12:52:59;11.57;;;9.20;;
5010;SDS011;2524;54.364;10.072;2022-10-23T12:55:28;8.60;;;7.73;;
5010;SDS011;2524;54.364;10.072;2022-10-23T12:57:56;13.73;;;9.30;;
5010;SDS011;2524;54.364;10.072;2022-10-23T13:00:23;12.93;;;9.97;;
5010;SDS011;2524;54.364;10.072;2022-10-23T13:03:24;11.40;;;7.70;;
5010;SDS011;2524;54.364;10.072;2022-10-23T13:05:51;7.20;;;6.50;;
5010;SDS011;2524;54.364;10.072;2022-10-23T13:08:20;5.77;;;5.17;;
5010;SDS011;2524;54.364;10.072;2022-10-23T13:10:47;9.77;;;8.00;;
5010;SDS011;2524;54.364;10.072;2022-10-23T13:13:13;8.90;;;7.33;;
5010;SDS011;2524;54.364;10.072;2022-10-23T13:15:45;9.70;;;6.80;;
5010;SDS011;2524;54.364;10.072;2022-10-23T13:18:12;12.73;;;7.70;;
5010;SDS011;2524;54.364;10.072;2022-10-23T13:20:42;12.60;;;7.80;;
5010;SDS011;2524;54.364;10.072;2022-10-23T13:23:31;6.20;;;5.60;;
5010;SDS011;2524;54.364;10.072;2022-10-23T13:26:03;5.23;;;4.83;;
5010;SDS011;2524;54.364;10.072;2022-10-23T13:28:31;4.97;;;4.60;;
5010;SDS011;2524;54.364;10.072;2022-10-23T13:33:37;7.00;;;6.20;;
5010;SDS011;2524;54.364;10.072;2022-10-23T13:36:17;8.10;;;6.57;;
5010;SDS011;2524;54.364;10.072;2022-10-23T13:38:47;7.80;;;5.80;;
5010;SDS011;2524;54.364;10.072;2022-10-23T13:41:23;5.60;;;5.10;;
5010;SDS011;2524;54.364;10.072;2022-10-23T13:43:49;6.13;;;5.00;;
5010;SDS011;2524;54.364;10.072;2022-10-23T13:46:19;7.63;;;5.87;;
5010;SDS011;2524;54.364;10.072;2022-10-23T13:48:46;5.27;;;4.77;;
5010;SDS011;2524;54.364;10.072;2022-10-23T13:51:19;4.93;;;4.50;;
5010;SDS011;2524;54.364;10.072;2022-10-23T13:53:46;5.27;;;4.77;;
5010;SDS011;2524;54.364;10.072;2022-10-23T13:56:12;5.20;;;4.57;;
5010;SDS011;2524;54.364;10.072;2022-10-23T13:58:39;3.90;;;3.60;;
5010;SDS011;2524;54.364;10.072;2022-10-23T14:01:08;4.00;;;3.70;;
5010;SDS011;2524;54.364;10.072;2022-10-23T14:03:43;7.53;;;4.70;;
5010;SDS011;2524;54.364;10.072;2022-10-23T14:06:08;6.37;;;3.93;;
5010;SDS011;2524;54.364;10.072;2022-10-23T14:08:34;3.77;;;3.43;;
5010;SDS011;2524;54.364;10.072;2022-10-23T14:10:59;4.23;;;3.83;;
5010;SDS011;2524;54.364;10.072;2022-10-23T14:13:25;3.47;;;3.27;;
5010;SDS011;2524;54.364;10.072;2022-10-23T14:15:54;6.40;;;4.70;;
5010;SDS011;2524;54.364;10.072;2022-10-23T14:18:20;4.00;;;3.70;;
5010;SDS011;2524;54.364;10.072;2022-10-23T14:20:46;3.30;;;3.10;;
5010;SDS011;2524;54.364;10.072;2022-10-23T14:23:11;4.10;;;3.70;;
5010;SDS011;2524;54.364;10.072;2022-10-23T14:25:37;3.03;;;2.90;;
5010;SDS011;2524;54.364;10.072;2022-10-23T14:28:03;3.40;;;3.20;;
5010;SDS011;2524;54.364;10.072;2022-10-23T14:30:28;4.50;;;4.07;;
5010;SDS011;2524;54.364;10.072;2022-10-23T14:32:54;3.43;;;3.23;;
5010;SDS011;2524;54.364;10.072;2022-10-23T14:35:20;3.70;;;3.40;;
5010;SDS011;2524;54.364;10.072;2022-10-23T14:37:52;3.90;;;3.57;;
5010;SDS011;2524;54.364;10.072;2022-10-23T14:40:18;3.63;;;3.33;;
5010;SDS011;2524;54.364;10.072;2022-10-23T14:42:43;3.00;;;2.90;;
5010;SDS011;2524;54.364;10.072;2022-10-23T14:45:09;3.57;;;3.37;;
5010;SDS011;2524;54.364;10.072;2022-10-23T14:47:35;4.63;;;4.13;;
5010;SDS011;2524;54.364;10.072;2022-10-23T14:50:00;3.67;;;3.37;;
5010;SDS011;2524;54.364;10.072;2022-10-23T14:52:26;3.60;;;3.40;;
5010;SDS011;2524;54.364;10.072;2022-10-23T14:54:52;3.83;;;3.63;;
5010;SDS011;2524;54.364;10.072;2022-10-23T14:57:18;4.13;;;3.80;;
5010;SDS011;2524;54.364;10.072;2022-10-23T14:59:45;4.87;;;4.47;;
5010;SDS011;2524;54.364;10.072;2022-10-23T15:02:12;4.43;;;4.13;;
5010;SDS011;2524;54.364;10.072;2022-10-23T15:04:38;5.57;;;5.07;;
5010;SDS011;2524;54.364;10.072;2022-10-23T15:07:04;5.53;;;3.87;;
5010;SDS011;2524;54.364;10.072;2022-10-23T15:09:29;4.83;;;4.37;;
5010;SDS011;2524;54.364;10.072;2022-10-23T15:11:59;4.57;;;4.17;;
5010;SDS011;2524;54.364;10.072;2022-10-23T15:14:24;5.27;;;4.77;;
5010;SDS011;2524;54.364;10.072;2022-10-23T15:16:50;6.90;;;4.70;;
5010;SDS011;2524;54.364;10.072;2022-10-23T15:19:16;5.63;;;4.17;;
5010;SDS011;2524;54.364;10.072;2022-10-23T15:24:33;6.50;;;5.90;;
5010;SDS011;2524;54.364;10.072;2022-10-23T15:27:16;7.13;;;6.40;;
5010;SDS011;2524;54.364;10.072;2022-10-23T15:29:42;5.80;;;5.30;;
5010;SDS011;2524;54.364;10.072;2022-10-23T15:32:08;5.87;;;5.07;;
5010;SDS011;2524;54.364;10.072;2022-10-23T15:34:48;7.60;;;5.73;;
5010;SDS011;2524;54.364;10.072;2022-10-23T15:37:16;4.60;;;4.30;;
5010;SDS011;2524;54.364;10.072;2022-10-23T15:39:41;10.00;;;5.60;;
5010;SDS011;2524;54.364;10.072;2022-10-23T15:42:08;6.70;;;5.70;;
5010;SDS011;2524;54.364;10.072;2022-10-23T15:44:34;7.63;;;5.93;;
5010;SDS011;2524;54.364;10.072;2022-10-23T15:46:59;5.53;;;5.13;;
5010;SDS011;2524;54.364;10.072;2022-10-23T15:49:26;7.00;;;5.40;;
5010;SDS011;2524;54.364;10.072;2022-10-23T15:51:55;6.40;;;5.80;;
5010;SDS011;2524;54.364;10.072;2022-10-23T15:54:21;4.43;;;4.10;;
5010;SDS011;2524;54.364;10.072;2022-10-23T15:56:48;8.27;;;5.40;;
5010;SDS011;2524;54.364;10.072;2022-10-23T15:59:15;3.70;;;3.40;;
5010;SDS011;2524;54.364;10.072;2022-10-23T16:01:42;4.13;;;3.83;;
5010;SDS011;2524;54.364;10.072;2022-10-23T16:04:07;3.90;;;3.70;;
5010;SDS011;2524;54.364;10.072;2022-10-23T16:06:33;4.00;;;3.70;;
5010;SDS011;2524;54.364;10.072;2022-10-23T16:08:59;3.20;;;3.10;;
5010;SDS011;2524;54.364;10.072;2022-10-23T16:11:26;5.43;;;4.80;;
5010;SDS011;2524;54.364;10.072;2022-10-23T16:13:54;4.40;;;3.90;;
5010;SDS011;2524;54.364;10.072;2022-10-23T16:16:21;4.13;;;3.80;;
5010;SDS011;2524;54.364;10.072;2022-10-23T16:18:46;3.70;;;3.50;;
5010;SDS011;2524;54.364;10.072;2022-10-23T16:21:20;8.37;;;4.50;;
5010;SDS011;2524;54.364;10.072;2022-10-23T16:23:47;3.70;;;3.43;;
5010;SDS011;2524;54.364;10.072;2022-10-23T16:26:14;3.83;;;3.63;;
5010;SDS011;2524;54.364;10.072;2022-10-23T16:28:41;3.90;;;3.60;;
5010;SDS011;2524;54.364;10.072;2022-10-23T16:31:09;5.13;;;4.00;;
5010;SDS011;2524;54.364;10.072;2022-10-23T16:33:37;3.80;;;3.60;;
5010;SDS011;2524;54.364;10.072;2022-10-23T16:36:07;3.77;;;3.47;;
5010;SDS011;2524;54.364;10.072;2022-10-23T16:38:34;7.70;;;4.07;;
5010;SDS011;2524;54.364;10.072;2022-10-23T16:41:00;4.83;;;4.27;;
5010;SDS011;2524;54.364;10.072;2022-10-23T16:43:26;4.40;;;4.07;;
5010;SDS011;2524;54.364;10.072;2022-10-23T16:45:59;4.87;;;4.47;;
5010;SDS011;2524;54.364;10.072;2022-10-23T16:48:34;4.30;;;3.90;;
5010;SDS011;2524;54.364;10.072;2022-10-23T16:51:03;5.03;;;4.50;;
5010;SDS011;2524;54.364;10.072;2022-10-23T16:53:33;4.50;;;4.20;;
5010;SDS011;2524;54.364;10.072;2022-10-23T16:55:59;7.33;;;5.50;;
5010;SDS011;2524;54.364;10.072;2022-10-23T16:58:28;5.50;;;5.00;;